Time;durP1;ratioP1;P1;durP2;ratioP2;P2;SDS_P1;SDS_P2;PMS_P1;PMS_P2;Temp;Humidity;BMP_temperature;BMP_pressure;BME280_temperature;BME280_humidity;BME280_pressure;Samples;Min_cycle;Max_cycle;Signal;HPM_P1;HPM_P2
2021/08/05 00:01:27;;;;;;;12.55;9.70;;;;;;;21.27;66.41;99253.31;1707115;84;21057;-40
2021/08/05 00:03:53;;;;;;;11.80;9.00;;;;;;;21.23;66.43;99251.43;1707164;84;21592;-40
2021/08/05 00:06:20;;;;;;;12.43;8.98;;;;;;;21.21;66.41;99253.84;1707230;84;21001;-40
2021/08/05 00:08:46;;;;;;;16.55;9.18;;;;;;;21.23;66.35;99239.63;1707221;83;21017;-40
2021/08/05 00:11:13;;;;;;;12.03;9.23;;;;;;;21.22;66.39;99244.36;1664506;83;21571;-40
2021/08/05 00:13:39;;;;;;;10.98;9.15;;;;;;;21.23;66.35;99245.92;1663961;85;21034;-40
2021/08/05 00:16:08;;;;;;;13.13;9.53;;;;;;;21.21;66.35;99241.43;1663779;85;20930;-40
2021/08/05 00:18:35;;;;;;;11.68;9.38;;;;;;;21.19;66.39;99242.48;1663842;86;21029;-40
2021/08/05 00:21:02;;;;;;;11.20;7.92;;;;;;;21.19;66.38;99236.19;1663875;86;21033;-40
2021/08/05 00:23:29;;;;;;;11.03;8.75;;;;;;;21.20;66.23;99234.36;1663849;86;21049;-40
2021/08/05 00:25:55;;;;;;;11.95;9.33;;;;;;;21.23;66.16;99237.64;1687378;84;21014;-40
2021/08/05 00:28:22;;;;;;;10.78;9.35;;;;;;;21.22;66.04;99233.94;1707162;84;21831;-40
2021/08/05 00:30:49;;;;;;;12.33;10.00;;;;;;;21.21;66.07;99233.76;1707042;84;21046;-40
2021/08/05 00:33:17;;;;;;;13.32;9.30;;;;;;;21.18;65.98;99228.52;1707190;83;21026;-40
2021/08/05 00:35:44;;;;;;;9.25;8.25;;;;;;;21.14;66.01;99225.09;1707229;84;20982;-41
2021/08/05 00:38:10;;;;;;;9.78;8.78;;;;;;;21.16;65.93;99217.74;1706967;83;21717;-40
2021/08/05 00:40:37;;;;;;;10.88;8.15;;;;;;;21.17;65.87;99223.43;1707221;83;21143;-40
2021/08/05 00:43:04;;;;;;;9.98;8.78;;;;;;;21.16;65.71;99219.90;1707005;84;21042;-40
2021/08/05 00:45:31;;;;;;;10.23;8.78;;;;;;;21.11;65.60;99220.39;1707531;84;21635;-40
2021/08/05 00:47:58;;;;;;;13.58;9.48;;;;;;;21.08;65.54;99217.14;1707215;84;21061;-40
2021/08/05 00:50:25;;;;;;;10.13;8.93;;;;;;;21.05;65.50;99218.02;1679135;84;21053;-40
2021/08/05 00:52:52;;;;;;;12.50;9.45;;;;;;;21.01;65.51;99217.94;1707309;84;21151;-40
2021/08/05 00:55:19;;;;;;;12.95;8.90;;;;;;;20.96;65.52;99213.70;1707149;84;21017;-40
2021/08/05 00:57:46;;;;;;;9.53;8.40;;;;;;;20.92;65.71;99210.26;1707399;83;20985;-40
2021/08/05 01:00:14;;;;;;;12.73;8.63;;;;;;;20.94;65.82;99209.84;1683562;84;21101;-40
2021/08/05 01:03:01;;;;;;;11.03;9.08;;;;;;;20.95;65.74;99207.26;1713645;83;21052;-41
2021/08/05 01:05:29;;;;;;;11.30;9.30;;;;;;;20.92;65.66;99206.13;1703617;83;21590;-40
2021/08/05 01:08:10;;;;;;;13.45;10.08;;;;;;;20.88;65.82;99209.58;1703587;83;20974;-40
2021/08/05 01:11:11;;;;;;;13.25;9.45;;;;;;;20.84;65.86;99207.52;1713695;82;21037;-40
2021/08/05 01:13:50;;;;;;;11.50;8.45;;;;;;;20.80;65.94;99206.84;1713700;82;21609;-40
2021/08/05 01:16:17;;;;;;;10.50;8.40;;;;;;;20.77;66.07;99211.81;1731980;82;21499;-40
2021/08/05 01:18:46;;;;;;;12.82;9.18;;;;;;;20.77;66.18;99211.22;1743316;81;20938;-40
2021/08/05 01:21:21;;;;;;;12.45;8.55;;;;;;;20.78;66.22;99220.27;1743070;81;21065;-40
2021/08/05 01:23:57;;;;;;;13.22;9.20;;;;;;;20.76;66.19;99216.58;1743629;82;20974;-40
2021/08/05 01:26:45;;;;;;;11.75;8.78;;;;;;;20.75;66.13;99217.00;1707409;83;20980;-40
2021/08/05 01:29:11;;;;;;;11.80;9.55;;;;;;;20.71;66.04;99220.45;1707660;84;21018;-40
2021/08/05 01:31:39;;;;;;;10.30;9.15;;;;;;;20.67;66.14;99211.50;1743142;81;21211;-40
2021/08/05 01:34:05;;;;;;;9.83;8.83;;;;;;;20.64;66.16;99217.25;1707410;84;21021;-40
2021/08/05 01:36:32;;;;;;;11.38;9.20;;;;;;;20.65;66.03;99211.92;1707380;84;20937;-40
2021/08/05 01:38:59;;;;;;;10.00;9.00;;;;;;;20.66;65.72;99207.20;1707396;83;21025;-40
2021/08/05 01:41:28;;;;;;;13.08;9.95;;;;;;;20.64;65.65;99208.22;1707835;84;21029;-40
2021/08/05 01:43:55;;;;;;;14.00;9.75;;;;;;;20.61;65.65;99207.70;1743507;82;21631;-40
2021/08/05 01:46:22;;;;;;;11.10;9.50;;;;;;;20.55;65.77;99213.55;1743092;82;20965;-40
2021/08/05 01:48:50;;;;;;;12.07;8.90;;;;;;;20.51;65.82;99208.73;1698998;83;21537;-40
2021/08/05 01:51:21;;;;;;;11.25;8.28;;;;;;;20.51;65.83;99204.61;1713482;83;21088;-41
2021/08/05 01:53:51;;;;;;;10.98;9.28;;;;;;;20.53;65.72;99199.42;1719172;82;21054;-41
2021/08/05 01:56:23;;;;;;;9.63;8.23;;;;;;;20.54;65.51;99200.98;1743162;82;21144;-41
2021/08/05 01:58:51;;;;;;;9.98;8.98;;;;;;;20.51;65.49;99201.25;1685995;84;21049;-41
2021/08/05 02:01:21;;;;;;;11.05;9.08;;;;;;;20.49;65.50;99202.88;1707823;84;21058;-41
2021/08/05 02:04:02;;;;;;;12.63;8.78;;;;;;;20.48;65.54;99191.08;1707778;84;20937;-41
2021/08/05 02:06:30;;;;;;;10.35;9.35;;;;;;;20.47;65.56;99198.41;1743304;82;20998;-41
2021/08/05 02:09:01;;;;;;;9.35;8.40;;;;;;;20.41;65.58;99191.86;1744151;81;21551;-41
2021/08/05 02:11:33;;;;;;;8.85;7.95;;;;;;;20.39;65.35;99199.16;1758713;81;20997;-41
2021/08/05 02:14:03;;;;;;;9.03;7.95;;;;;;;20.38;65.24;99197.64;1758800;81;20882;-41
2021/08/05 02:16:30;;;;;;;10.35;8.90;;;;;;;20.41;65.29;99195.99;1758952;81;21543;-40
2021/08/05 02:18:56;;;;;;;11.15;8.65;;;;;;;20.38;65.42;99196.27;1758705;81;21068;-41
2021/08/05 02:21:26;;;;;;;11.05;9.00;;;;;;;20.36;65.59;99203.56;1758896;81;21129;-41
2021/08/05 02:23:57;;;;;;;;;;;;;;;20.34;66.37;99206.56;1761378;81;20976;-41
2021/08/05 02:26:24;;;;;;;10.75;8.53;;;;;;;20.30;66.75;99199.77;1758201;81;20141;-41
2021/08/05 02:28:51;;;;;;;12.55;8.50;;;;;;;20.21;67.10;99191.30;1758688;81;20965;-40
2021/08/05 02:31:18;;;;;;;9.88;8.18;;;;;;;20.28;67.01;99190.37;1758707;81;21040;-41
2021/08/05 02:33:45;;;;;;;9.98;8.20;;;;;;;20.35;66.87;99195.73;1758736;81;21128;-40
2021/08/05 02:36:12;;;;;;;10.18;8.83;;;;;;;20.36;66.53;99193.93;1759079;81;20986;-41
2021/08/05 02:38:40;;;;;;;11.08;8.95;;;;;;;20.37;66.47;99195.48;1741644;81;21844;-41
2021/08/05 02:41:06;;;;;;;10.20;8.88;;;;;;;20.38;66.43;99194.89;1691742;84;21251;-41
2021/08/05 02:43:33;;;;;;;12.25;9.20;;;;;;;20.36;66.38;99195.91;1691827;84;21080;-41
2021/08/05 02:46:01;;;;;;;9.33;8.30;;;;;;;20.35;66.35;99201.23;1691590;84;21142;-41
2021/08/05 02:48:29;;;;;;;8.93;7.90;;;;;;;20.33;66.31;99193.39;1675902;83;21532;-41
2021/08/05 02:50:57;;;;;;;9.53;8.48;;;;;;;20.38;66.21;99190.12;1720541;83;21212;-41
2021/08/05 02:53:27;;;;;;;13.48;9.38;;;;;;;20.44;66.10;99195.13;1694504;83;21035;-41
2021/08/05 02:55:55;;;;;;;12.07;8.98;;;;;;;20.44;66.07;99188.23;1720865;83;21052;-41
2021/08/05 02:58:22;;;;;;;12.45;9.33;;;;;;;20.44;66.17;99189.61;1720565;83;21121;-41
2021/08/05 03:00:49;;;;;;;10.13;8.75;;;;;;;20.46;66.35;99189.97;1720306;83;21005;-40
2021/08/05 03:03:23;;;;;;;11.05;8.13;;;;;;;20.47;66.60;99190.15;1715970;82;21559;-41
2021/08/05 03:05:52;;;;;;;10.38;7.65;;;;;;;20.48;66.76;99181.44;1677516;84;20977;-41
2021/08/05 03:08:18;;;;;;;9.90;7.90;;;;;;;20.54;66.87;99180.33;1701987;84;21120;-41
2021/08/05 03:10:47;;;;;;;10.85;7.95;;;;;;;20.60;66.93;99181.37;1689088;83;21139;-41
2021/08/05 03:13:15;;;;;;;8.95;7.67;;;;;;;20.63;66.94;99180.49;1685876;85;21049;-41
2021/08/05 03:15:43;;;;;;;8.70;7.60;;;;;;;20.64;66.98;99168.27;1687220;85;21089;-41
2021/08/05 03:18:10;;;;;;;9.83;7.80;;;;;;;20.66;66.99;99169.41;1662285;86;21035;-41
2021/08/05 03:20:37;;;;;;;9.13;7.58;;;;;;;20.68;66.99;99170.33;1674362;85;21109;-41
2021/08/05 03:23:03;;;;;;;9.83;7.65;;;;;;;20.69;67.00;99167.75;1674060;85;21178;-41
2021/08/05 03:25:30;;;;;;;9.83;7.95;;;;;;;20.77;66.93;99165.76;1674299;85;20978;-41
2021/08/05 03:27:56;;;;;;;9.35;8.10;;;;;;;20.85;66.93;99173.86;1674153;85;21052;-41
2021/08/05 03:30:23;;;;;;;10.50;8.48;;;;;;;20.88;67.01;99166.87;1674043;85;21112;-41
2021/08/05 03:32:50;;;;;;;9.63;8.63;;;;;;;20.91;66.86;99165.24;1674137;85;21112;-41
2021/08/05 03:35:17;;;;;;;9.83;8.85;;;;;;;20.93;66.73;99170.48;1674158;85;21158;-41
2021/08/05 03:37:44;;;;;;;8.73;7.78;;;;;;;20.96;67.02;99173.73;1680397;84;21497;-41
2021/08/05 03:40:12;;;;;;;11.18;7.70;;;;;;;21.00;67.15;99170.91;1695563;84;21093;-41
2021/08/05 03:42:38;;;;;;;9.00;7.97;;;;;;;21.08;67.05;99167.52;1694067;84;21322;-41
2021/08/05 03:45:07;;;;;;;10.05;7.97;;;;;;;21.15;67.01;99165.99;1694069;84;21037;-41
2021/08/05 03:47:33;;;;;;;10.08;8.50;;;;;;;21.18;67.05;99164.34;1677473;85;21179;-41
2021/08/05 03:50:00;;;;;;;11.68;8.13;;;;;;;21.21;67.01;99154.58;1757298;81;20926;-41
2021/08/05 03:52:26;;;;;;;10.48;8.50;;;;;;;21.23;66.92;99167.34;1763975;81;21009;-41
2021/08/05 03:54:53;;;;;;;8.83;7.87;;;;;;;21.25;66.84;99162.14;1748056;81;21002;-41
2021/08/05 03:57:20;;;;;;;8.73;7.70;;;;;;;21.29;66.94;99164.83;1743056;81;21037;-41
2021/08/05 03:59:46;;;;;;;8.58;7.58;;;;;;;21.37;66.90;99164.79;1726789;81;21762;-41
2021/08/05 04:02:13;;;;;;;12.28;9.03;;;;;;;21.43;66.88;99173.30;1713451;83;21025;-41
2021/08/05 04:04:41;;;;;;;12.03;8.58;;;;;;;21.44;66.68;99171.50;1714002;83;20954;-41
2021/08/05 04:07:08;;;;;;;11.88;9.30;;;;;;;21.44;66.46;99170.12;1713434;83;21028;-41
2021/08/05 04:09:35;;;;;;;11.35;9.33;;;;;;;21.46;66.59;99169.66;1723064;82;21634;-41
2021/08/05 04:12:01;;;;;;;11.00;8.65;;;;;;;21.47;66.47;99166.47;1707262;84;21139;-41
2021/08/05 04:14:28;;;;;;;9.50;7.90;;;;;;;21.49;65.98;99174.31;1707426;84;20937;-41
2021/08/05 04:16:54;;;;;;;12.78;8.73;;;;;;;21.56;66.04;99179.63;1707366;84;21015;-41
2021/08/05 04:19:26;;;;;;;10.03;8.85;;;;;;;21.58;65.94;99171.69;1743156;81;21580;-41
2021/08/05 04:21:51;;;;;;;10.20;8.93;;;;;;;21.56;65.71;99167.98;1743016;81;21002;-41
2021/08/05 04:24:18;;;;;;;11.53;9.73;;;;;;;21.54;65.79;99172.41;1707794;83;21098;-41
2021/08/05 04:26:46;;;;;;;12.95;9.60;;;;;;;21.49;65.84;99164.67;1743060;81;21524;-41
2021/08/05 04:29:13;;;;;;;9.28;8.28;;;;;;;21.46;66.23;99166.90;1707387;84;21064;-41
2021/08/05 04:31:39;;;;;;;10.18;8.73;;;;;;;21.48;66.71;99161.73;1707255;84;21002;-41
2021/08/05 04:34:06;;;;;;;10.10;9.00;;;;;;;21.56;66.46;99161.09;1736774;82;21535;-41
2021/08/05 04:36:33;;;;;;;10.75;9.08;;;;;;;21.64;66.19;99164.41;1707568;83;21122;-41
2021/08/05 04:38:59;;;;;;;13.35;9.33;;;;;;;21.64;66.28;99158.88;1745777;81;20922;-41
2021/08/05 04:41:27;;;;;;;11.15;9.45;;;;;;;21.60;66.21;99158.22;1720471;83;20956;-41
2021/08/05 04:43:55;;;;;;;9.30;8.40;;;;;;;21.59;66.87;99155.31;1720859;83;21040;-41
2021/08/05 04:46:21;;;;;;;10.13;8.40;;;;;;;21.66;66.92;99144.83;1720297;83;21590;-41
2021/08/05 04:48:48;;;;;;;11.73;8.88;;;;;;;21.75;67.03;99154.44;1700600;82;21145;-41
2021/08/05 04:51:15;;;;;;;11.10;9.48;;;;;;;21.82;66.73;99150.88;1691500;84;21020;-41
2021/08/05 04:53:43;;;;;;;12.15;10.53;;;;;;;21.85;66.83;99155.50;1696033;83;21021;-41
2021/08/05 04:56:09;;;;;;;14.13;10.35;;;;;;;21.90;66.77;99152.20;1702307;84;21101;-41
2021/08/05 04:58:36;;;;;;;12.33;10.75;;;;;;;21.92;66.73;99155.91;1702384;84;21002;-41
2021/08/05 05:01:03;;;;;;;11.40;10.20;;;;;;;21.93;67.09;99157.45;1702296;84;22043;-41
2021/08/05 05:03:30;;;;;;;12.37;9.90;;;;;;;21.95;66.87;99157.20;1702173;84;21058;-41
2021/08/05 05:05:58;;;;;;;11.90;10.35;;;;;;;22.03;67.02;99157.14;1702412;84;21029;-41
2021/08/05 05:08:25;;;;;;;11.93;10.63;;;;;;;22.10;66.71;99158.31;1702463;84;21513;-41
2021/08/05 05:10:56;;;;;;;15.80;11.15;;;;;;;22.12;66.85;99160.64;1702375;84;21049;-41
2021/08/05 05:13:23;;;;;;;12.05;10.68;;;;;;;22.12;67.04;99160.64;1702898;84;22351;-41
2021/08/05 05:15:50;;;;;;;12.35;9.28;;;;;;;22.10;66.85;99161.67;1702248;84;21074;-41
2021/08/05 05:18:22;;;;;;;11.88;9.50;;;;;;;22.12;66.82;99151.58;1702322;84;21579;-41
2021/08/05 05:20:51;;;;;;;14.90;10.50;;;;;;;22.13;66.52;99160.78;1702254;84;20974;-41
2021/08/05 05:23:19;;;;;;;14.90;11.05;;;;;;;22.10;66.43;99159.69;1702289;84;21065;-41
2021/08/05 05:25:47;;;;;;;13.20;10.98;;;;;;;22.08;66.64;99161.33;1702335;84;21130;-41
2021/08/05 05:28:13;;;;;;;12.50;10.82;;;;;;;22.06;66.81;99167.31;1702224;84;21580;-41
2021/08/05 05:30:40;;;;;;;14.15;10.75;;;;;;;22.03;66.86;99166.80;1702463;84;21115;-41
2021/08/05 05:33:07;;;;;;;11.33;10.20;;;;;;;22.01;67.18;99174.77;1702150;84;21105;-41
2021/08/05 05:35:34;;;;;;;17.05;10.45;;;;;;;22.08;67.16;99170.39;1702681;84;21054;-41
2021/08/05 05:38:00;;;;;;;11.57;10.23;;;;;;;22.15;67.27;99176.31;1689496;84;21161;-41
2021/08/05 05:40:27;;;;;;;13.95;10.28;;;;;;;22.19;66.96;99172.05;1687988;84;21064;-41
2021/08/05 05:42:55;;;;;;;12.90;11.20;;;;;;;22.20;66.79;99163.94;1721068;83;21008;-41
2021/08/05 05:45:23;;;;;;;13.43;11.05;;;;;;;22.20;67.09;99159.80;1721220;83;21017;-41
2021/08/05 05:47:49;;;;;;;11.97;10.08;;;;;;;22.22;66.62;99161.52;1725101;82;21084;-41
2021/08/05 05:50:16;;;;;;;14.28;10.32;;;;;;;22.28;66.22;99161.11;1751101;82;21540;-41
2021/08/05 05:54:46;;;;;;;14.33;12.13;;;;;;;22.45;66.57;99161.16;1771470;79;22600;-40
2021/08/05 05:57:13;;;;;;;15.18;11.73;;;;;;;22.39;66.67;99166.47;1726785;83;21024;-40
2021/08/05 05:59:42;;;;;;;15.58;11.88;;;;;;;22.42;66.53;99164.80;1726835;82;21099;-40
2021/08/05 06:02:09;;;;;;;12.35;10.75;;;;;;;22.43;66.41;99163.58;1726807;82;21503;-40
2021/08/05 06:04:35;;;;;;;14.05;11.12;;;;;;;22.47;66.63;99158.71;1726739;83;20993;-41
2021/08/05 06:07:03;;;;;;;13.95;11.30;;;;;;;22.57;66.71;99163.12;1726640;82;20983;-40
2021/08/05 06:09:30;;;;;;;15.00;11.75;;;;;;;22.69;66.83;99151.28;1726700;80;20977;-40
2021/08/05 06:11:56;;;;;;;17.12;12.70;;;;;;;22.79;66.36;99147.41;1726799;83;21099;-40
2021/08/05 06:14:24;;;;;;;16.85;13.15;;;;;;;22.87;65.59;99146.55;1749076;81;21498;-40
2021/08/05 06:16:51;;;;;;;13.55;12.10;;;;;;;22.91;65.40;99156.27;1757034;81;20961;-40
2021/08/05 06:19:17;;;;;;;16.32;12.55;;;;;;;22.96;65.29;99149.39;1756595;81;21004;-40
2021/08/05 06:21:44;;;;;;;14.87;12.10;;;;;;;23.03;64.86;99144.23;1762114;80;21049;-41
2021/08/05 06:24:12;;;;;;;13.68;12.25;;;;;;;23.11;64.70;99142.75;1777116;80;21118;-40
2021/08/05 06:26:40;;;;;;;14.53;12.73;;;;;;;23.18;64.12;99147.44;1777352;80;20989;-41
2021/08/05 06:29:09;;;;;;;17.60;14.13;;;;;;;23.23;64.44;99149.63;1777623;80;20961;-40
2021/08/05 06:31:35;;;;;;;17.05;12.90;;;;;;;23.29;64.34;99155.33;1777926;80;21507;-41
2021/08/05 06:34:03;;;;;;;15.28;13.65;;;;;;;23.30;63.93;99142.44;1727391;80;21057;-40
2021/08/05 06:36:31;;;;;;;14.40;12.23;;;;;;;23.36;64.37;99149.55;1727300;83;21104;-41
2021/08/05 06:38:58;;;;;;;13.03;10.60;;;;;;;23.43;63.77;99146.51;1748662;81;21505;-41
2021/08/05 06:41:25;;;;;;;13.03;10.40;;;;;;;23.51;62.73;99140.15;1756375;81;21005;-41
2021/08/05 06:43:53;;;;;;;13.62;11.15;;;;;;;23.63;62.20;99140.67;1756924;81;20953;-41
2021/08/05 06:46:20;;;;;;;15.23;10.93;;;;;;;23.75;62.07;99138.44;1756811;81;21115;-41
2021/08/05 06:48:47;;;;;;;12.37;11.03;;;;;;;23.82;62.08;99129.84;1745604;81;21157;-40
2021/08/05 06:51:13;;;;;;;10.75;9.65;;;;;;;23.95;61.48;99129.77;1726862;83;21542;-40
2021/08/05 06:53:40;;;;;;;14.90;9.80;;;;;;;24.06;61.41;99120.44;1725210;82;21550;-40
2021/08/05 06:56:06;;;;;;;10.60;9.48;;;;;;;24.16;60.87;99117.83;1743656;82;21590;-41
2021/08/05 06:58:33;;;;;;;14.30;9.20;;;;;;;24.21;60.18;99115.26;1737414;82;21077;-41
2021/08/05 07:01:00;;;;;;;8.90;7.97;;;;;;;24.30;60.55;99116.53;1714285;82;21037;-41
2021/08/05 07:03:27;;;;;;;8.35;7.40;;;;;;;24.40;60.51;99114.69;1727526;82;20967;-40
2021/08/05 07:05:54;;;;;;;10.70;7.10;;;;;;;24.55;59.65;99115.64;1743689;82;20992;-41
2021/08/05 07:08:20;;;;;;;8.38;7.10;;;;;;;24.72;59.14;99113.98;1743172;82;21047;-41
2021/08/05 07:10:47;;;;;;;9.23;7.03;;;;;;;24.80;58.98;99114.59;1719450;81;21029;-41
2021/08/05 07:13:15;;;;;;;10.32;7.20;;;;;;;24.90;58.88;99111.23;1713551;82;21531;-41
2021/08/05 07:15:42;;;;;;;8.65;6.83;;;;;;;25.02;58.19;99107.55;1713929;83;21473;-41
2021/08/05 07:18:09;;;;;;;7.03;6.22;;;;;;;25.14;58.30;99105.83;1713497;83;20989;-41
2021/08/05 07:20:36;;;;;;;8.58;6.55;;;;;;;25.28;57.29;99108.73;1713523;83;21496;-41
2021/08/05 07:23:02;;;;;;;25.80;9.08;;;;;;;25.39;56.39;99103.48;1713673;83;21017;-41
2021/08/05 07:25:30;;;;;;;9.33;7.10;;;;;;;25.50;56.90;99102.38;1713575;83;21223;-41
2021/08/05 07:28:00;;;;;;;7.85;6.85;;;;;;;25.62;56.42;99095.73;1713765;83;21324;-41
2021/08/05 07:30:24;;;;;;;9.75;6.87;;;;;;;25.71;56.56;99098.47;1713748;83;21025;-41
2021/08/05 07:32:51;;;;;;;8.78;6.60;;;;;;;25.84;56.08;99093.50;1713713;83;21485;-41
2021/08/05 07:35:18;;;;;;;8.48;6.60;;;;;;;25.98;55.73;99094.21;1713562;83;21040;-41
2021/08/05 07:37:44;;;;;;;8.13;7.33;;;;;;;26.10;55.07;99089.05;1713568;83;21146;-41
2021/08/05 07:40:14;;;;;;;6.67;5.87;;;;;;;26.25;54.77;99087.14;1719142;82;21857;-41
2021/08/05 07:42:41;;;;;;;7.93;6.40;;;;;;;26.37;54.93;99087.55;1743519;81;21634;-41
2021/08/05 07:45:09;;;;;;;8.28;6.67;;;;;;;26.49;54.72;99082.97;1743241;82;21718;-41
2021/08/05 07:47:36;;;;;;;7.75;6.95;;;;;;;26.61;54.30;99079.80;1743119;82;21511;-41
2021/08/05 07:50:05;;;;;;;7.83;6.67;;;;;;;26.69;54.51;99072.63;1743229;82;21109;-41
2021/08/05 07:52:32;;;;;;;7.83;6.25;;;;;;;26.78;54.31;99069.16;1743385;82;21485;-41
2021/08/05 07:55:03;;;;;;;6.80;5.80;;;;;;;26.87;54.00;99066.20;1743032;81;21005;-41
2021/08/05 07:57:27;;;;;;;6.28;5.67;;;;;;;26.96;54.07;99067.50;1743260;82;21077;-41
2021/08/05 07:59:54;;;;;;;6.22;5.58;;;;;;;27.03;53.06;99070.66;1743337;81;20981;-41
2021/08/05 08:02:20;;;;;;;7.78;5.97;;;;;;;27.09;52.17;99072.16;1737298;81;21177;-41
2021/08/05 08:04:47;;;;;;;8.45;6.17;;;;;;;27.06;51.92;99068.30;1742784;82;21565;-41
2021/08/05 08:07:13;;;;;;;6.90;6.20;;;;;;;27.02;52.21;99065.56;1738954;82;21020;-41
2021/08/05 08:09:42;;;;;;;7.90;6.12;;;;;;;27.04;52.78;99054.13;1724017;82;20973;-41
2021/08/05 08:12:09;;;;;;;9.70;6.33;;;;;;;27.12;52.49;99053.88;1705567;83;21081;-41
2021/08/05 08:14:35;;;;;;;6.25;5.45;;;;;;;27.21;52.69;99055.79;1705459;84;21127;-41
2021/08/05 08:17:03;;;;;;;9.10;5.83;;;;;;;27.30;52.78;99053.56;1705154;84;21642;-41
2021/08/05 08:19:30;;;;;;;8.38;6.25;;;;;;;27.41;52.25;99056.51;1705548;84;20945;-41
2021/08/05 08:21:57;;;;;;;10.68;5.65;;;;;;;27.55;52.88;99056.52;1705162;84;21594;-41
2021/08/05 08:24:23;;;;;;;5.90;5.40;;;;;;;27.71;52.06;99056.66;1705513;84;21507;-41
2021/08/05 08:26:50;;;;;;;7.25;5.30;;;;;;;27.88;51.68;99060.47;1705553;82;21836;-41
2021/08/05 08:29:17;;;;;;;7.17;5.67;;;;;;;28.02;51.05;99062.45;1705245;84;21358;-41
2021/08/05 08:31:48;;;;;;;6.80;5.55;;;;;;;28.19;50.92;99059.91;1705459;84;21420;-41
2021/08/05 08:34:13;;;;;;;6.40;5.60;;;;;;;28.32;50.56;99054.01;1705782;83;21783;-41
2021/08/05 08:36:42;;;;;;;7.25;5.47;;;;;;;28.42;50.35;99060.95;1705466;84;21038;-41
2021/08/05 08:39:09;;;;;;;7.87;5.62;;;;;;;28.49;49.65;99061.32;1705290;84;21978;-41
2021/08/05 08:41:38;;;;;;;6.25;5.65;;;;;;;28.52;49.16;99059.56;1660892;85;20996;-41
2021/08/05 08:44:05;;;;;;;8.68;5.15;;;;;;;28.52;49.72;99060.95;1705661;84;21532;-41
2021/08/05 08:46:34;;;;;;;8.23;5.37;;;;;;;28.51;49.36;99051.82;1705417;84;21041;-41
2021/08/05 08:49:01;;;;;;;8.23;5.20;;;;;;;28.54;48.91;99052.88;1710916;82;21041;-41
2021/08/05 08:51:31;;;;;;;7.50;5.30;;;;;;;28.52;48.40;99053.98;1734798;82;21519;-41
2021/08/05 08:54:02;;;;;;;6.97;5.10;;;;;;;28.49;49.53;99048.00;1730693;81;21092;-41
2021/08/05 08:56:30;;;;;;;11.50;6.67;;;;;;;28.53;49.79;99046.53;1719086;83;21471;-41
2021/08/05 08:58:58;;;;;;;5.92;5.20;;;;;;;28.58;49.77;99052.03;1719199;83;21084;-41
2021/08/05 09:01:25;;;;;;;8.48;6.03;;;;;;;28.57;48.44;99053.28;1718825;83;21519;-41
2021/08/05 09:03:52;;;;;;;8.08;5.15;;;;;;;28.53;48.84;99052.73;1719214;83;21283;-41
2021/08/05 09:06:18;;;;;;;7.42;5.12;;;;;;;28.43;48.46;99055.52;1718900;83;21076;-41
2021/08/05 09:08:46;;;;;;;7.95;6.25;;;;;;;28.34;49.15;99059.84;1718888;83;21016;-41
2021/08/05 09:11:12;;;;;;;6.67;5.60;;;;;;;28.30;50.24;99055.11;1718906;82;20973;-41
2021/08/05 09:13:39;;;;;;;6.62;5.53;;;;;;;28.36;49.74;99062.93;1719514;82;21037;-41
2021/08/05 09:16:25;;;;;;;6.92;6.12;;;;;;;28.32;49.35;99058.93;1718868;83;21854;-41
2021/08/05 09:18:53;;;;;;;7.50;5.70;;;;;;;28.29;50.10;99056.36;1718912;83;20977;-41
2021/08/05 09:21:23;;;;;;;12.25;5.97;;;;;;;28.30;50.72;99059.30;1718741;83;20989;-41
2021/08/05 09:24:01;;;;;;;6.97;6.20;;;;;;;28.33;50.75;99056.91;1719368;83;20977;-41
2021/08/05 09:26:44;;;;;;;7.40;5.80;;;;;;;28.42;50.25;99056.77;1718867;83;21084;-41
2021/08/05 09:29:17;;;;;;;7.67;5.35;;;;;;;28.42;49.77;99052.59;1718936;83;21751;-41
2021/08/05 09:31:49;;;;;;;6.78;5.70;;;;;;;28.49;50.80;99054.97;1718640;82;21035;-41
2021/08/05 09:34:40;;;;;;;5.70;5.10;;;;;;;28.62;49.66;99047.63;1717227;83;21723;-41
2021/08/05 09:37:09;;;;;;;7.05;5.35;;;;;;;28.76;49.33;99040.59;1718793;82;21053;-41
2021/08/05 09:39:39;;;;;;;6.83;5.78;;;;;;;28.92;49.03;99037.85;1741077;82;21080;-41
2021/08/05 09:42:11;;;;;;;7.50;5.33;;;;;;;29.02;48.97;99037.83;1748712;82;21072;-41
2021/08/05 09:44:43;;;;;;;6.37;5.60;;;;;;;29.09;48.21;99036.64;1748956;82;20957;-41
2021/08/05 09:47:18;;;;;;;7.50;5.35;;;;;;;29.20;48.54;99029.73;1747879;82;20985;-41
2021/08/05 09:49:54;;;;;;;7.90;5.20;;;;;;;29.34;48.27;99028.88;1748322;82;20941;-41
2021/08/05 09:52:34;;;;;;;7.78;5.15;;;;;;;29.49;47.87;99017.56;1747083;82;21622;-41
2021/08/05 09:55:04;;;;;;;7.00;5.40;;;;;;;29.60;47.85;99017.02;1727387;82;21085;-41
2021/08/05 09:57:35;;;;;;;5.75;5.12;;;;;;;29.68;48.19;99019.48;1718840;83;20968;-41
2021/08/05 10:00:09;;;;;;;10.00;5.42;;;;;;;29.77;46.97;99016.48;1719167;82;21571;-41
2021/08/05 10:02:48;;;;;;;8.25;4.90;;;;;;;29.78;46.32;99022.22;1719194;83;21092;-41
2021/08/05 10:05:21;;;;;;;6.08;4.60;;;;;;;29.76;46.47;99020.57;1712754;83;21562;-41
2021/08/05 10:07:53;;;;;;;4.90;4.42;;;;;;;29.76;46.94;99020.57;1746234;82;21296;-41
2021/08/05 10:10:25;;;;;;;5.60;4.47;;;;;;;29.78;45.94;99016.63;1730025;82;21003;-41
2021/08/05 10:12:57;;;;;;;5.58;4.80;;;;;;;29.74;45.00;99014.70;1719150;83;21610;-41
2021/08/05 10:15:23;;;;;;;8.45;4.85;;;;;;;29.73;45.69;99013.17;1718783;83;21001;-41
2021/08/05 10:17:56;;;;;;;6.22;4.30;;;;;;;29.87;46.13;99017.05;1718958;83;20998;-41
2021/08/05 10:20:25;;;;;;;7.00;4.75;;;;;;;30.04;44.88;99013.77;1730359;82;21632;-41
2021/08/05 10:22:56;;;;;;;5.97;4.50;;;;;;;30.17;43.75;99016.88;1748531;82;21060;-41
2021/08/05 10:25:25;;;;;;;5.42;4.60;;;;;;;30.27;44.92;99017.42;1748770;82;20996;-41
2021/08/05 10:27:55;;;;;;;7.05;4.55;;;;;;;30.44;43.62;99008.48;1749108;82;21750;-41
2021/08/05 10:30:22;;;;;;;6.28;4.70;;;;;;;30.57;43.88;99009.43;1747986;82;21590;-41
2021/08/05 10:32:49;;;;;;;5.10;4.60;;;;;;;30.69;42.80;99001.84;1748559;82;21133;-41
2021/08/05 10:35:16;;;;;;;5.87;5.00;;;;;;;30.81;43.34;99003.37;1667503;82;21028;-41
2021/08/05 10:37:43;;;;;;;5.45;4.87;;;;;;;31.02;42.92;98999.12;1748582;82;21028;-41
2021/08/05 10:40:11;;;;;;;6.95;5.33;;;;;;;31.25;43.05;99005.48;1748726;82;21019;-41
2021/08/05 10:42:40;;;;;;;6.10;4.37;;;;;;;31.45;42.78;98997.59;1748862;82;21021;-41
2021/08/05 10:45:09;;;;;;;6.87;4.70;;;;;;;31.67;41.71;98994.02;1691578;82;21338;-41
2021/08/05 10:47:35;;;;;;;4.63;4.20;;;;;;;31.90;40.42;98991.28;1748921;82;20984;-41
2021/08/05 10:50:06;;;;;;;5.20;4.62;;;;;;;32.02;39.24;98990.61;1721157;82;21487;-41
2021/08/05 10:52:40;;;;;;;5.50;4.92;;;;;;;32.00;40.44;98991.76;1749041;82;20934;-41
2021/08/05 10:55:27;;;;;;;4.70;4.30;;;;;;;32.11;39.55;98986.15;1720117;82;21041;-41
2021/08/05 10:58:15;;;;;;;6.85;4.45;;;;;;;32.20;40.56;98988.66;1705463;83;21764;-41
2021/08/05 11:00:56;;;;;;;6.37;4.50;;;;;;;32.38;39.72;98985.16;1735090;82;21033;-41
2021/08/05 11:03:40;;;;;;;6.65;4.80;;;;;;;32.39;39.17;98983.22;1734968;81;21021;-41
2021/08/05 11:06:06;;;;;;;6.42;4.62;;;;;;;32.42;38.57;98980.02;1734455;82;20994;-42
2021/08/05 11:08:33;;;;;;;5.45;4.87;;;;;;;32.46;39.06;98979.87;1734850;82;21018;-42
2021/08/05 11:11:25;;;;;;;6.92;4.47;;;;;;;32.52;38.29;98983.42;1708425;82;21113;-41
2021/08/05 11:14:06;;;;;;;7.75;4.90;;;;;;;32.55;38.01;98980.20;1705407;84;21542;-41
2021/08/05 11:17:04;;;;;;;5.50;4.90;;;;;;;32.54;38.01;98968.84;1705535;84;20930;-41
2021/08/05 11:19:37;;;;;;;5.95;4.33;;;;;;;32.49;39.01;98961.98;1705617;84;21009;-41
2021/08/05 11:22:36;;;;;;;5.30;4.70;;;;;;;32.59;38.46;98958.23;1705367;84;21017;-41
2021/08/05 11:25:03;;;;;;;5.33;4.83;;;;;;;32.83;38.89;98956.95;1705461;84;21149;-41
2021/08/05 11:27:30;;;;;;;11.95;6.85;;;;;;;33.06;38.95;98951.30;1705470;84;20989;-42
2021/08/05 11:29:56;;;;;;;7.15;4.80;;;;;;;33.24;37.99;98943.51;1705409;84;21068;-41
2021/08/05 11:32:28;;;;;;;8.08;5.40;;;;;;;33.40;37.74;98934.93;1685120;84;21010;-41
2021/08/05 11:35:02;;;;;;;7.62;5.28;;;;;;;33.55;37.41;98940.15;1705671;84;21015;-41
2021/08/05 11:37:29;;;;;;;7.70;4.28;;;;;;;33.58;37.29;98934.23;1705244;82;21201;-41
2021/08/05 11:39:58;;;;;;;5.75;4.45;;;;;;;33.56;36.99;98931.81;1705450;84;21041;-42